sensor_id;sensor_type;location;lat;lon;timestamp;P1;durP1;ratioP1;P2;durP2;ratioP2
22660;SDS011;11497;52.222;21.246;2023-10-13T00:01:24;30.58;;;12.70;;
22660;SDS011;11497;52.222;21.246;2023-10-13T00:03:52;22.65;;;12.40;;
22660;SDS011;11497;52.222;21.246;2023-10-13T00:06:21;24.58;;;12.15;;
22660;SDS011;11497;52.222;21.246;2023-10-13T00:08:48;28.20;;;13.60;;
22660;SDS011;11497;52.222;21.246;2023-10-13T00:11:17;25.75;;;14.23;;
22660;SDS011;11497;52.222;21.246;2023-10-13T00:13:46;34.05;;;13.98;;
22660;SDS011;11497;52.222;21.246;2023-10-13T00:16:17;28.42;;;14.05;;
22660;SDS011;11497;52.222;21.246;2023-10-13T00:18:50;28.35;;;13.27;;
22660;SDS011;11497;52.222;21.246;2023-10-13T00:21:21;27.05;;;13.40;;
22660;SDS011;11497;52.222;21.246;2023-10-13T00:23:59;25.60;;;13.48;;
22660;SDS011;11497;52.222;21.246;2023-10-13T00:26:33;25.85;;;13.45;;
22660;SDS011;11497;52.222;21.246;2023-10-13T00:29:03;30.02;;;14.13;;
22660;SDS011;11497;52.222;21.246;2023-10-13T00:31:36;28.50;;;13.82;;
22660;SDS011;11497;52.222;21.246;2023-10-13T00:34:06;30.10;;;13.52;;
22660;SDS011;11497;52.222;21.246;2023-10-13T00:36:43;28.98;;;14.02;;
22660;SDS011;11497;52.222;21.246;2023-10-13T00:39:30;27.48;;;13.07;;
22660;SDS011;11497;52.222;21.246;2023-10-13T00:41:57;26.90;;;14.73;;
22660;SDS011;11497;52.222;21.246;2023-10-13T00:44:33;27.23;;;13.93;;
22660;SDS011;11497;52.222;21.246;2023-10-13T00:47:18;25.20;;;12.95;;
22660;SDS011;11497;52.222;21.246;2023-10-13T00:50:04;31.52;;;13.77;;
22660;SDS011;11497;52.222;21.246;2023-10-13T00:52:32;29.27;;;14.63;;
22660;SDS011;11497;52.222;21.246;2023-10-13T00:55:03;30.85;;;14.30;;
22660;SDS011;11497;52.222;21.246;2023-10-13T00:57:32;29.15;;;13.98;;
22660;SDS011;11497;52.222;21.246;2023-10-13T01:00:00;31.65;;;14.05;;
22660;SDS011;11497;52.222;21.246;2023-10-13T01:02:39;31.17;;;14.77;;
22660;SDS011;11497;52.222;21.246;2023-10-13T01:05:08;29.55;;;13.98;;
22660;SDS011;11497;52.222;21.246;2023-10-13T01:07:46;32.10;;;14.45;;
22660;SDS011;11497;52.222;21.246;2023-10-13T01:10:22;27.30;;;13.73;;
22660;SDS011;11497;52.222;21.246;2023-10-13T01:12:54;30.27;;;13.77;;
22660;SDS011;11497;52.222;21.246;2023-10-13T01:15:22;26.33;;;13.25;;
22660;SDS011;11497;52.222;21.246;2023-10-13T01:18:06;25.13;;;12.80;;
22660;SDS011;11497;52.222;21.246;2023-10-13T01:20:38;25.77;;;12.65;;
22660;SDS011;11497;52.222;21.246;2023-10-13T01:23:11;27.88;;;12.77;;
22660;SDS011;11497;52.222;21.246;2023-10-13T01:25:46;26.60;;;13.07;;
22660;SDS011;11497;52.222;21.246;2023-10-13T01:28:15;23.80;;;12.23;;
22660;SDS011;11497;52.222;21.246;2023-10-13T01:30:44;29.85;;;14.32;;
22660;SDS011;11497;52.222;21.246;2023-10-13T01:33:18;27.05;;;12.98;;
22660;SDS011;11497;52.222;21.246;2023-10-13T01:35:56;30.10;;;12.73;;
22660;SDS011;11497;52.222;21.246;2023-10-13T01:38:26;25.67;;;13.27;;
22660;SDS011;11497;52.222;21.246;2023-10-13T01:40:54;26.73;;;13.05;;
22660;SDS011;11497;52.222;21.246;2023-10-13T01:43:23;24.10;;;12.43;;
22660;SDS011;11497;52.222;21.246;2023-10-13T01:45:52;28.15;;;12.32;;
22660;SDS011;11497;52.222;21.246;2023-10-13T01:48:20;26.88;;;14.48;;
22660;SDS011;11497;52.222;21.246;2023-10-13T01:50:49;25.50;;;13.00;;
22660;SDS011;11497;52.222;21.246;2023-10-13T01:53:23;27.52;;;14.05;;
22660;SDS011;11497;52.222;21.246;2023-10-13T01:55:51;25.42;;;12.57;;
22660;SDS011;11497;52.222;21.246;2023-10-13T01:58:23;23.40;;;12.98;;
22660;SDS011;11497;52.222;21.246;2023-10-13T02:00:53;25.75;;;13.27;;
22660;SDS011;11497;52.222;21.246;2023-10-13T02:03:23;26.80;;;12.98;;
22660;SDS011;11497;52.222;21.246;2023-10-13T02:05:51;25.25;;;13.27;;
22660;SDS011;11497;52.222;21.246;2023-10-13T02:08:24;24.85;;;12.77;;
22660;SDS011;11497;52.222;21.246;2023-10-13T02:10:54;23.42;;;12.23;;
22660;SDS011;11497;52.222;21.246;2023-10-13T02:13:23;24.13;;;12.48;;
22660;SDS011;11497;52.222;21.246;2023-10-13T02:15:56;26.13;;;13.32;;
22660;SDS011;11497;52.222;21.246;2023-10-13T02:18:29;25.45;;;13.05;;
22660;SDS011;11497;52.222;21.246;2023-10-13T02:21:10;27.90;;;13.35;;
22660;SDS011;11497;52.222;21.246;2023-10-13T02:23:41;39.88;;;14.75;;
22660;SDS011;11497;52.222;21.246;2023-10-13T02:26:12;31.70;;;13.55;;
22660;SDS011;11497;52.222;21.246;2023-10-13T02:29:00;37.40;;;14.93;;
22660;SDS011;11497;52.222;21.246;2023-10-13T02:31:35;40.58;;;14.88;;
22660;SDS011;11497;52.222;21.246;2023-10-13T02:34:04;40.95;;;15.25;;
22660;SDS011;11497;52.222;21.246;2023-10-13T02:36:36;48.67;;;15.50;;
22660;SDS011;11497;52.222;21.246;2023-10-13T02:39:05;58.85;;;17.05;;
22660;SDS011;11497;52.222;21.246;2023-10-13T02:41:35;46.40;;;15.25;;
22660;SDS011;11497;52.222;21.246;2023-10-13T02:44:04;53.15;;;15.93;;
22660;SDS011;11497;52.222;21.246;2023-10-13T02:46:34;41.85;;;14.93;;
22660;SDS011;11497;52.222;21.246;2023-10-13T02:49:03;38.97;;;15.88;;
22660;SDS011;11497;52.222;21.246;2023-10-13T02:51:38;35.38;;;14.10;;
22660;SDS011;11497;52.222;21.246;2023-10-13T02:54:09;34.25;;;15.00;;
22660;SDS011;11497;52.222;21.246;2023-10-13T02:56:45;40.17;;;17.98;;
22660;SDS011;11497;52.222;21.246;2023-10-13T02:59:32;44.55;;;18.50;;
22660;SDS011;11497;52.222;21.246;2023-10-13T03:02:27;53.80;;;19.63;;
22660;SDS011;11497;52.222;21.246;2023-10-13T03:04:57;35.75;;;16.48;;
22660;SDS011;11497;52.222;21.246;2023-10-13T03:07:26;48.28;;;19.05;;
22660;SDS011;11497;52.222;21.246;2023-10-13T03:09:58;48.65;;;18.48;;
22660;SDS011;11497;52.222;21.246;2023-10-13T03:12:38;40.80;;;17.88;;
22660;SDS011;11497;52.222;21.246;2023-10-13T03:15:06;48.50;;;17.60;;
22660;SDS011;11497;52.222;21.246;2023-10-13T03:17:45;62.28;;;16.85;;
22660;SDS011;11497;52.222;21.246;2023-10-13T03:20:14;42.15;;;16.13;;
22660;SDS011;11497;52.222;21.246;2023-10-13T03:22:43;58.38;;;16.42;;
22660;SDS011;11497;52.222;21.246;2023-10-13T03:25:14;54.03;;;15.95;;
22660;SDS011;11497;52.222;21.246;2023-10-13T03:27:52;70.25;;;17.15;;
22660;SDS011;11497;52.222;21.246;2023-10-13T03:30:21;68.35;;;17.45;;
22660;SDS011;11497;52.222;21.246;2023-10-13T03:32:56;35.03;;;15.23;;
22660;SDS011;11497;52.222;21.246;2023-10-13T03:35:24;33.00;;;15.13;;
22660;SDS011;11497;52.222;21.246;2023-10-13T03:37:58;33.13;;;16.50;;
22660;SDS011;11497;52.222;21.246;2023-10-13T03:40:25;31.15;;;15.02;;
22660;SDS011;11497;52.222;21.246;2023-10-13T03:42:54;34.80;;;15.35;;
22660;SDS011;11497;52.222;21.246;2023-10-13T03:48:07;34.83;;;16.50;;
22660;SDS011;11497;52.222;21.246;2023-10-13T03:51:00;33.40;;;16.05;;
22660;SDS011;11497;52.222;21.246;2023-10-13T03:53:34;42.38;;;17.55;;
22660;SDS011;11497;52.222;21.246;2023-10-13T03:56:03;37.58;;;17.60;;
22660;SDS011;11497;52.222;21.246;2023-10-13T03:58:58;35.72;;;16.50;;
22660;SDS011;11497;52.222;21.246;2023-10-13T04:01:33;33.78;;;15.32;;
22660;SDS011;11497;52.222;21.246;2023-10-13T04:04:22;33.33;;;15.88;;
22660;SDS011;11497;52.222;21.246;2023-10-13T04:07:16;31.55;;;14.98;;
22660;SDS011;11497;52.222;21.246;2023-10-13T04:09:52;32.00;;;14.23;;
22660;SDS011;11497;52.222;21.246;2023-10-13T04:12:40;32.65;;;14.98;;
22660;SDS011;11497;52.222;21.246;2023-10-13T04:15:27;35.05;;;15.50;;
22660;SDS011;11497;52.222;21.246;2023-10-13T04:18:04;35.22;;;15.18;;
22660;SDS011;11497;52.222;21.246;2023-10-13T04:20:41;40.55;;;15.15;;
22660;SDS011;11497;52.222;21.246;2023-10-13T04:23:13;49.30;;;15.93;;
22660;SDS011;11497;52.222;21.246;2023-10-13T04:25:52;43.72;;;14.98;;
22660;SDS011;11497;52.222;21.246;2023-10-13T04:28:34;47.45;;;16.88;;
22660;SDS011;11497;52.222;21.246;2023-10-13T04:31:04;31.23;;;14.30;;
22660;SDS011;11497;52.222;21.246;2023-10-13T04:33:51;39.38;;;16.25;;
22660;SDS011;11497;52.222;21.246;2023-10-13T04:36:22;32.30;;;14.85;;
22660;SDS011;11497;52.222;21.246;2023-10-13T04:38:54;37.28;;;15.30;;
22660;SDS011;11497;52.222;21.246;2023-10-13T04:41:36;39.85;;;16.60;;
22660;SDS011;11497;52.222;21.246;2023-10-13T04:44:13;37.15;;;15.98;;
22660;SDS011;11497;52.222;21.246;2023-10-13T04:46:56;38.85;;;15.88;;
22660;SDS011;11497;52.222;21.246;2023-10-13T04:49:29;38.35;;;16.27;;
22660;SDS011;11497;52.222;21.246;2023-10-13T04:52:17;47.67;;;16.30;;
22660;SDS011;11497;52.222;21.246;2023-10-13T04:55:04;37.03;;;16.83;;
22660;SDS011;11497;52.222;21.246;2023-10-13T04:57:45;53.17;;;17.58;;
22660;SDS011;11497;52.222;21.246;2023-10-13T05:00:38;46.00;;;17.17;;
22660;SDS011;11497;52.222;21.246;2023-10-13T05:03:24;51.03;;;18.88;;
22660;SDS011;11497;52.222;21.246;2023-10-13T05:06:20;156.55;;;39.22;;
22660;SDS011;11497;52.222;21.246;2023-10-13T05:09:06;98.57;;;27.83;;
22660;SDS011;11497;52.222;21.246;2023-10-13T05:11:53;94.95;;;25.63;;
22660;SDS011;11497;52.222;21.246;2023-10-13T05:14:39;71.68;;;20.48;;
22660;SDS011;11497;52.222;21.246;2023-10-13T05:17:26;86.38;;;21.15;;
22660;SDS011;11497;52.222;21.246;2023-10-13T05:20:12;78.38;;;19.80;;
22660;SDS011;11497;52.222;21.246;2023-10-13T05:22:59;72.57;;;20.08;;
22660;SDS011;11497;52.222;21.246;2023-10-13T05:25:46;81.32;;;20.52;;
22660;SDS011;11497;52.222;21.246;2023-10-13T05:28:32;81.55;;;20.58;;
22660;SDS011;11497;52.222;21.246;2023-10-13T05:31:19;59.08;;;18.10;;
22660;SDS011;11497;52.222;21.246;2023-10-13T05:34:06;72.65;;;18.33;;
22660;SDS011;11497;52.222;21.246;2023-10-13T05:36:52;60.35;;;18.33;;
22660;SDS011;11497;52.222;21.246;2023-10-13T05:39:39;51.72;;;17.35;;
22660;SDS011;11497;52.222;21.246;2023-10-13T05:42:25;48.80;;;17.55;;
22660;SDS011;11497;52.222;21.246;2023-10-13T05:45:11;50.30;;;16.90;;
22660;SDS011;11497;52.222;21.246;2023-10-13T05:48:06;46.25;;;17.85;;
22660;SDS011;11497;52.222;21.246;2023-10-13T05:50:46;57.10;;;19.42;;
22660;SDS011;11497;52.222;21.246;2023-10-13T05:53:36;50.15;;;18.42;;
22660;SDS011;11497;52.222;21.246;2023-10-13T05:56:23;53.92;;;19.27;;
22660;SDS011;11497;52.222;21.246;2023-10-13T05:59:09;48.75;;;18.77;;
22660;SDS011;11497;52.222;21.246;2023-10-13T06:01:56;48.42;;;19.98;;
22660;SDS011;11497;52.222;21.246;2023-10-13T06:04:43;70.75;;;22.40;;
22660;SDS011;11497;52.222;21.246;2023-10-13T06:07:29;74.15;;;23.45;;
22660;SDS011;11497;52.222;21.246;2023-10-13T06:10:16;81.50;;;22.92;;
22660;SDS011;11497;52.222;21.246;2023-10-13T06:13:03;72.18;;;23.27;;
22660;SDS011;11497;52.222;21.246;2023-10-13T06:15:49;72.32;;;23.73;;
22660;SDS011;11497;52.222;21.246;2023-10-13T06:18:36;69.25;;;24.40;;
22660;SDS011;11497;52.222;21.246;2023-10-13T06:21:22;100.78;;;25.83;;
22660;SDS011;11497;52.222;21.246;2023-10-13T06:24:08;106.93;;;25.10;;
22660;SDS011;11497;52.222;21.246;2023-10-13T06:26:55;150.52;;;26.75;;
22660;SDS011;11497;52.222;21.246;2023-10-13T06:29:41;72.70;;;23.77;;
22660;SDS011;11497;52.222;21.246;2023-10-13T06:32:12;68.78;;;26.02;;
22660;SDS011;11497;52.222;21.246;2023-10-13T06:34:43;71.28;;;26.77;;
22660;SDS011;11497;52.222;21.246;2023-10-13T06:37:14;65.80;;;26.50;;
22660;SDS011;11497;52.222;21.246;2023-10-13T06:39:50;63.83;;;26.15;;
22660;SDS011;11497;52.222;21.246;2023-10-13T06:42:18;59.53;;;24.10;;
22660;SDS011;11497;52.222;21.246;2023-10-13T06:44:46;56.38;;;24.85;;
22660;SDS011;11497;52.222;21.246;2023-10-13T06:47:13;47.70;;;23.48;;
22660;SDS011;11497;52.222;21.246;2023-10-13T06:49:42;59.03;;;25.17;;
22660;SDS011;11497;52.222;21.246;2023-10-13T06:52:12;53.17;;;23.67;;
22660;SDS011;11497;52.222;21.246;2023-10-13T06:54:41;50.20;;;24.52;;
22660;SDS011;11497;52.222;21.246;2023-10-13T06:57:09;58.15;;;26.73;;
22660;SDS011;11497;52.222;21.246;2023-10-13T06:59:41;51.03;;;24.17;;
22660;SDS011;11497;52.222;21.246;2023-10-13T07:02:09;53.08;;;25.33;;
22660;SDS011;11497;52.222;21.246;2023-10-13T07:04:54;46.55;;;24.60;;
22660;SDS011;11497;52.222;21.246;2023-10-13T07:07:35;46.28;;;24.90;;
22660;SDS011;11497;52.222;21.246;2023-10-13T07:10:07;45.53;;;26.25;;
22660;SDS011;11497;52.222;21.246;2023-10-13T07:12:35;48.42;;;27.58;;
22660;SDS011;11497;52.222;21.246;2023-10-13T07:15:04;44.75;;;26.13;;
22660;SDS011;11497;52.222;21.246;2023-10-13T07:20:07;49.22;;;26.85;;
22660;SDS011;11497;52.222;21.246;2023-10-13T07:22:42;44.38;;;28.17;;
22660;SDS011;11497;52.222;21.246;2023-10-13T07:25:24;41.83;;;26.30;;
22660;SDS011;11497;52.222;21.246;2023-10-13T07:27:53;55.92;;;32.15;;
22660;SDS011;11497;52.222;21.246;2023-10-13T07:30:24;42.28;;;26.20;;
22660;SDS011;11497;52.222;21.246;2023-10-13T07:32:57;44.85;;;28.67;;
22660;SDS011;11497;52.222;21.246;2023-10-13T07:35:27;65.00;;;37.42;;
22660;SDS011;11497;52.222;21.246;2023-10-13T07:37:58;44.40;;;28.27;;
22660;SDS011;11497;52.222;21.246;2023-10-13T07:40:27;49.90;;;28.38;;
22660;SDS011;11497;52.222;21.246;2023-10-13T07:42:56;45.58;;;26.00;;
22660;SDS011;11497;52.222;21.246;2023-10-13T07:45:38;35.50;;;23.10;;
22660;SDS011;11497;52.222;21.246;2023-10-13T07:48:08;37.85;;;20.08;;
22660;SDS011;11497;52.222;21.246;2023-10-13T07:50:47;30.55;;;18.23;;
22660;SDS011;11497;52.222;21.246;2023-10-13T07:53:15;30.45;;;17.88;;
22660;SDS011;11497;52.222;21.246;2023-10-13T07:55:50;27.27;;;18.60;;
22660;SDS011;11497;52.222;21.246;2023-10-13T07:58:29;33.50;;;17.30;;
22660;SDS011;11497;52.222;21.246;2023-10-13T08:00:58;31.65;;;17.17;;
22660;SDS011;11497;52.222;21.246;2023-10-13T08:03:26;27.85;;;17.40;;
22660;SDS011;11497;52.222;21.246;2023-10-13T08:06:00;27.58;;;16.65;;
22660;SDS011;11497;52.222;21.246;2023-10-13T08:08:37;25.52;;;15.82;;
22660;SDS011;11497;52.222;21.246;2023-10-13T08:11:06;27.58;;;14.52;;
22660;SDS011;11497;52.222;21.246;2023-10-13T08:14:01;22.60;;;15.73;;
22660;SDS011;11497;52.222;21.246;2023-10-13T08:16:56;24.73;;;13.93;;
22660;SDS011;11497;52.222;21.246;2023-10-13T08:19:28;21.83;;;13.85;;
22660;SDS011;11497;52.222;21.246;2023-10-13T08:22:17;19.23;;;13.27;;
22660;SDS011;11497;52.222;21.246;2023-10-13T08:24:45;23.55;;;12.38;;
22660;SDS011;11497;52.222;21.246;2023-10-13T08:27:14;20.42;;;10.18;;
22660;SDS011;11497;52.222;21.246;2023-10-13T08:29:59;17.25;;;9.50;;
22660;SDS011;11497;52.222;21.246;2023-10-13T08:32:46;19.40;;;8.60;;
22660;SDS011;11497;52.222;21.246;2023-10-13T08:35:44;17.98;;;7.93;;
22660;SDS011;11497;52.222;21.246;2023-10-13T08:38:22;18.75;;;8.13;;
22660;SDS011;11497;52.222;21.246;2023-10-13T08:40:58;21.05;;;7.75;;
22660;SDS011;11497;52.222;21.246;2023-10-13T08:43:46;16.25;;;7.28;;
22660;SDS011;11497;52.222;21.246;2023-10-13T08:46:30;14.80;;;6.97;;
22660;SDS011;11497;52.222;21.246;2023-10-13T08:49:19;17.98;;;6.82;;
22660;SDS011;11497;52.222;21.246;2023-10-13T08:51:50;15.25;;;5.97;;
22660;SDS011;11497;52.222;21.246;2023-10-13T08:54:35;16.25;;;6.43;;
22660;SDS011;11497;52.222;21.246;2023-10-13T08:57:12;16.50;;;5.65;;
22660;SDS011;11497;52.222;21.246;2023-10-13T08:59:47;13.70;;;5.10;;
22660;SDS011;11497;52.222;21.246;2023-10-13T09:02:22;13.63;;;5.75;;
22660;SDS011;11497;52.222;21.246;2023-10-13T09:05:10;12.65;;;5.45;;
22660;SDS011;11497;52.222;21.246;2023-10-13T09:08:02;13.32;;;5.15;;
22660;SDS011;11497;52.222;21.246;2023-10-13T09:10:36;14.02;;;5.00;;
22660;SDS011;11497;52.222;21.246;2023-10-13T09:13:35;15.82;;;5.43;;
22660;SDS011;11497;52.222;21.246;2023-10-13T09:16:12;18.00;;;5.93;;
22660;SDS011;11497;52.222;21.246;2023-10-13T09:18:48;18.20;;;5.53;;
22660;SDS011;11497;52.222;21.246;2023-10-13T09:21:19;17.42;;;5.78;;
22660;SDS011;11497;52.222;21.246;2023-10-13T09:24:08;12.50;;;5.30;;
22660;SDS011;11497;52.222;21.246;2023-10-13T09:26:54;12.70;;;5.57;;
22660;SDS011;11497;52.222;21.246;2023-10-13T09:29:23;19.83;;;5.53;;
22660;SDS011;11497;52.222;21.246;2023-10-13T09:31:58;19.48;;;5.55;;
22660;SDS011;11497;52.222;21.246;2023-10-13T09:34:27;17.38;;;6.30;;
22660;SDS011;11497;52.222;21.246;2023-10-13T09:37:02;19.25;;;5.82;;
22660;SDS011;11497;52.222;21.246;2023-10-13T09:39:31;18.55;;;6.45;;
22660;SDS011;11497;52.222;21.246;2023-10-13T09:42:15;25.70;;;7.38;;
22660;SDS011;11497;52.222;21.246;2023-10-13T09:44:45;19.85;;;6.55;;
22660;SDS011;11497;52.222;21.246;2023-10-13T09:49:48;19.35;;;7.43;;
22660;SDS011;11497;52.222;21.246;2023-10-13T09:52:18;17.58;;;7.00;;
22660;SDS011;11497;52.222;21.246;2023-10-13T09:55:02;26.35;;;7.25;;
22660;SDS011;11497;52.222;21.246;2023-10-13T09:57:37;23.85;;;7.65;;
22660;SDS011;11497;52.222;21.246;2023-10-13T10:00:18;17.55;;;6.95;;
22660;SDS011;11497;52.222;21.246;2023-10-13T10:05:59;17.25;;;6.80;;
22660;SDS011;11497;52.222;21.246;2023-10-13T10:08:31;19.30;;;6.90;;
22660;SDS011;11497;52.222;21.246;2023-10-13T10:13:35;15.10;;;6.90;;
22660;SDS011;11497;52.222;21.246;2023-10-13T10:16:10;17.55;;;6.80;;
22660;SDS011;11497;52.222;21.246;2023-10-13T10:18:41;19.60;;;7.07;;
22660;SDS011;11497;52.222;21.246;2023-10-13T10:21:09;18.55;;;7.45;;
22660;SDS011;11497;52.222;21.246;2023-10-13T10:23:38;14.48;;;7.22;;
22660;SDS011;11497;52.222;21.246;2023-10-13T10:26:13;17.77;;;7.13;;
22660;SDS011;11497;52.222;21.246;2023-10-13T10:28:43;17.13;;;7.57;;
22660;SDS011;11497;52.222;21.246;2023-10-13T10:31:12;16.05;;;7.13;;
22660;SDS011;11497;52.222;21.246;2023-10-13T10:33:41;17.40;;;7.32;;
22660;SDS011;11497;52.222;21.246;2023-10-13T10:36:09;16.70;;;6.82;;
22660;SDS011;11497;52.222;21.246;2023-10-13T10:38:53;20.48;;;7.53;;
22660;SDS011;11497;52.222;21.246;2023-10-13T10:41:26;22.20;;;7.28;;
22660;SDS011;11497;52.222;21.246;2023-10-13T10:43:59;17.13;;;7.78;;
22660;SDS011;11497;52.222;21.246;2023-10-13T10:46:35;15.05;;;6.88;;
22660;SDS011;11497;52.222;21.246;2023-10-13T10:49:09;14.32;;;6.95;;
22660;SDS011;11497;52.222;21.246;2023-10-13T10:51:44;20.90;;;8.18;;
22660;SDS011;11497;52.222;21.246;2023-10-13T10:54:19;16.42;;;7.57;;
22660;SDS011;11497;52.222;21.246;2023-10-13T10:56:47;17.08;;;8.25;;
22660;SDS011;11497;52.222;21.246;2023-10-13T10:59:35;16.98;;;8.48;;
22660;SDS011;11497;52.222;21.246;2023-10-13T11:02:04;14.45;;;7.45;;
22660;SDS011;11497;52.222;21.246;2023-10-13T11:04:34;15.98;;;7.63;;
22660;SDS011;11497;52.222;21.246;2023-10-13T11:07:07;17.65;;;7.07;;
22660;SDS011;11497;52.222;21.246;2023-10-13T11:09:35;18.13;;;8.52;;
22660;SDS011;11497;52.222;21.246;2023-10-13T11:14:32;16.70;;;7.80;;
22660;SDS011;11497;52.222;21.246;2023-10-13T11:17:00;18.33;;;8.02;;
22660;SDS011;11497;52.222;21.246;2023-10-13T11:19:35;20.40;;;8.38;;
22660;SDS011;11497;52.222;21.246;2023-10-13T11:22:14;19.33;;;8.43;;
22660;SDS011;11497;52.222;21.246;2023-10-13T11:25:05;16.65;;;8.05;;
22660;SDS011;11497;52.222;21.246;2023-10-13T11:27:40;18.98;;;8.63;;
22660;SDS011;11497;52.222;21.246;2023-10-13T11:30:17;17.55;;;7.63;;
22660;SDS011;11497;52.222;21.246;2023-10-13T11:35:26;16.40;;;7.55;;
22660;SDS011;11497;52.222;21.246;2023-10-13T11:38:16;16.10;;;7.72;;
22660;SDS011;11497;52.222;21.246;2023-10-13T11:41:03;16.50;;;8.05;;
22660;SDS011;11497;52.222;21.246;2023-10-13T11:43:31;15.05;;;7.97;;
22660;SDS011;11497;52.222;21.246;2023-10-13T11:46:09;14.93;;;7.85;;
22660;SDS011;11497;52.222;21.246;2023-10-13T11:48:37;16.20;;;7.35;;
22660;SDS011;11497;52.222;21.246;2023-10-13T11:51:06;14.85;;;7.28;;
22660;SDS011;11497;52.222;21.246;2023-10-13T11:53:34;18.00;;;7.03;;
22660;SDS011;11497;52.222;21.246;2023-10-13T11:56:03;14.00;;;6.57;;
22660;SDS011;11497;52.222;21.246;2023-10-13T11:58:37;18.02;;;7.38;;
22660;SDS011;11497;52.222;21.246;2023-10-13T12:01:06;16.77;;;7.07;;
22660;SDS011;11497;52.222;21.246;2023-10-13T12:03:40;21.40;;;7.72;;
22660;SDS011;11497;52.222;21.246;2023-10-13T12:06:27;15.52;;;7.47;;
22660;SDS011;11497;52.222;21.246;2023-10-13T12:11:46;22.60;;;9.63;;
22660;SDS011;11497;52.222;21.246;2023-10-13T12:14:15;14.68;;;8.82;;
22660;SDS011;11497;52.222;21.246;2023-10-13T12:16:56;18.70;;;8.48;;
22660;SDS011;11497;52.222;21.246;2023-10-13T12:19:30;16.20;;;8.27;;
22660;SDS011;11497;52.222;21.246;2023-10-13T12:21:58;16.88;;;7.68;;
22660;SDS011;11497;52.222;21.246;2023-10-13T12:24:32;13.50;;;7.53;;
22660;SDS011;11497;52.222;21.246;2023-10-13T12:27:03;19.45;;;8.60;;
22660;SDS011;11497;52.222;21.246;2023-10-13T12:29:47;15.35;;;7.78;;
22660;SDS011;11497;52.222;21.246;2023-10-13T12:32:15;18.95;;;7.75;;
22660;SDS011;11497;52.222;21.246;2023-10-13T12:34:48;17.00;;;7.53;;
22660;SDS011;11497;52.222;21.246;2023-10-13T12:37:29;14.93;;;7.40;;
22660;SDS011;11497;52.222;21.246;2023-10-13T12:40:14;17.55;;;7.30;;
22660;SDS011;11497;52.222;21.246;2023-10-13T12:43:01;16.77;;;7.82;;
22660;SDS011;11497;52.222;21.246;2023-10-13T12:45:48;14.48;;;7.55;;
22660;SDS011;11497;52.222;21.246;2023-10-13T12:48:36;13.75;;;7.03;;
22660;SDS011;11497;52.222;21.246;2023-10-13T12:51:25;17.38;;;8.27;;
22660;SDS011;11497;52.222;21.246;2023-10-13T12:54:00;20.00;;;8.20;;
22660;SDS011;11497;52.222;21.246;2023-10-13T12:56:33;15.30;;;8.13;;
22660;SDS011;11497;52.222;21.246;2023-10-13T12:59:03;18.50;;;7.88;;
22660;SDS011;11497;52.222;21.246;2023-10-13T13:01:35;14.95;;;7.32;;
22660;SDS011;11497;52.222;21.246;2023-10-13T13:04:09;18.15;;;8.32;;
22660;SDS011;11497;52.222;21.246;2023-10-13T13:06:59;16.67;;;8.60;;
22660;SDS011;11497;52.222;21.246;2023-10-13T13:09:27;17.38;;;8.00;;
22660;SDS011;11497;52.222;21.246;2023-10-13T13:11:54;14.75;;;7.93;;
22660;SDS011;11497;52.222;21.246;2023-10-13T13:14:25;16.08;;;7.78;;
22660;SDS011;11497;52.222;21.246;2023-10-13T13:16:56;18.60;;;8.43;;
22660;SDS011;11497;52.222;21.246;2023-10-13T13:19:34;18.00;;;9.00;;
22660;SDS011;11497;52.222;21.246;2023-10-13T13:22:06;17.35;;;8.45;;
22660;SDS011;11497;52.222;21.246;2023-10-13T13:24:45;19.23;;;8.68;;
22660;SDS011;11497;52.222;21.246;2023-10-13T13:27:14;22.00;;;8.68;;
22660;SDS011;11497;52.222;21.246;2023-10-13T13:29:44;16.77;;;7.90;;
22660;SDS011;11497;52.222;21.246;2023-10-13T13:32:12;17.50;;;8.45;;
22660;SDS011;11497;52.222;21.246;2023-10-13T13:34:51;20.75;;;9.15;;
22660;SDS011;11497;52.222;21.246;2023-10-13T13:37:31;14.90;;;8.40;;
22660;SDS011;11497;52.222;21.246;2023-10-13T13:39:59;18.08;;;8.00;;
22660;SDS011;11497;52.222;21.246;2023-10-13T13:42:43;16.58;;;8.70;;
22660;SDS011;11497;52.222;21.246;2023-10-13T13:45:14;20.42;;;8.57;;
22660;SDS011;11497;52.222;21.246;2023-10-13T13:47:49;14.20;;;8.02;;
22660;SDS011;11497;52.222;21.246;2023-10-13T13:52:52;20.00;;;8.55;;
22660;SDS011;11497;52.222;21.246;2023-10-13T13:55:24;18.55;;;8.60;;
22660;SDS011;11497;52.222;21.246;2023-10-13T13:57:56;16.88;;;9.32;;
22660;SDS011;11497;52.222;21.246;2023-10-13T14:00:24;21.20;;;9.05;;
22660;SDS011;11497;52.222;21.246;2023-10-13T14:03:05;17.38;;;8.80;;
22660;SDS011;11497;52.222;21.246;2023-10-13T14:05:40;19.42;;;8.57;;
22660;SDS011;11497;52.222;21.246;2023-10-13T14:08:08;20.45;;;9.00;;
22660;SDS011;11497;52.222;21.246;2023-10-13T14:10:39;21.10;;;9.68;;
22660;SDS011;11497;52.222;21.246;2023-10-13T14:13:25;18.30;;;9.70;;
22660;SDS011;11497;52.222;21.246;2023-10-13T14:16:12;20.15;;;9.52;;
22660;SDS011;11497;52.222;21.246;2023-10-13T14:18:44;19.58;;;9.25;;
22660;SDS011;11497;52.222;21.246;2023-10-13T14:21:12;19.50;;;9.52;;
22660;SDS011;11497;52.222;21.246;2023-10-13T14:23:44;19.05;;;8.93;;
22660;SDS011;11497;52.222;21.246;2023-10-13T14:26:12;17.17;;;9.52;;
22660;SDS011;11497;52.222;21.246;2023-10-13T14:28:40;18.48;;;9.93;;
22660;SDS011;11497;52.222;21.246;2023-10-13T14:31:28;17.80;;;10.13;;
22660;SDS011;11497;52.222;21.246;2023-10-13T14:33:55;14.68;;;9.90;;
22660;SDS011;11497;52.222;21.246;2023-10-13T14:36:27;17.30;;;9.43;;
22660;SDS011;11497;52.222;21.246;2023-10-13T14:39:02;19.92;;;10.10;;
22660;SDS011;11497;52.222;21.246;2023-10-13T14:41:30;16.83;;;9.60;;
22660;SDS011;11497;52.222;21.246;2023-10-13T14:43:58;18.60;;;10.05;;
22660;SDS011;11497;52.222;21.246;2023-10-13T14:46:33;20.08;;;10.15;;
22660;SDS011;11497;52.222;21.246;2023-10-13T14:49:06;19.00;;;10.55;;
22660;SDS011;11497;52.222;21.246;2023-10-13T14:51:34;22.50;;;10.07;;
22660;SDS011;11497;52.222;21.246;2023-10-13T14:54:06;16.40;;;10.05;;
22660;SDS011;11497;52.222;21.246;2023-10-13T14:56:34;20.40;;;9.55;;
22660;SDS011;11497;52.222;21.246;2023-10-13T14:59:02;16.38;;;10.18;;
22660;SDS011;11497;52.222;21.246;2023-10-13T15:01:32;15.52;;;10.18;;
22660;SDS011;11497;52.222;21.246;2023-10-13T15:03:59;18.42;;;10.13;;
22660;SDS011;11497;52.222;21.246;2023-10-13T15:06:27;19.95;;;10.32;;
22660;SDS011;11497;52.222;21.246;2023-10-13T15:08:56;19.67;;;10.73;;
22660;SDS011;11497;52.222;21.246;2023-10-13T15:11:24;23.30;;;10.65;;
22660;SDS011;11497;52.222;21.246;2023-10-13T15:14:15;18.88;;;10.50;;
22660;SDS011;11497;52.222;21.246;2023-10-13T15:16:43;18.63;;;10.13;;
22660;SDS011;11497;52.222;21.246;2023-10-13T15:19:11;26.15;;;11.27;;
22660;SDS011;11497;52.222;21.246;2023-10-13T15:21:39;20.85;;;11.02;;
22660;SDS011;11497;52.222;21.246;2023-10-13T15:24:07;23.63;;;11.73;;
22660;SDS011;11497;52.222;21.246;2023-10-13T15:26:44;20.67;;;11.70;;